createdAt,value
2022-10-28T12:16:21.374Z,11992.00
2022-10-28T12:17:21.307Z,12008.00
2022-10-28T12:18:21.885Z,12284.00
2022-10-28T12:19:20.295Z,12356.00
2022-10-28T12:20:26.348Z,12012.00
2022-10-28T12:21:23.915Z,11612.00
2022-10-28T12:22:20.872Z,11692.00
2022-10-28T12:23:21.832Z,11896.00
2022-10-28T12:24:20.827Z,11836.00
2022-10-28T12:25:19.550Z,11696.00
2022-10-28T12:26:19.394Z,11792.00
2022-10-28T12:27:19.401Z,11748.00
2022-10-28T12:28:21.852Z,11548.00
2022-10-28T12:29:19.309Z,11556.00
2022-10-28T12:30:19.420Z,11352.00
2022-10-28T12:31:20.356Z,11268.00
2022-10-28T12:32:19.326Z,11216.00
2022-10-28T12:33:20.336Z,11064.00
2022-10-28T12:34:19.341Z,11236.00
2022-10-28T12:35:21.834Z,11416.00
2022-10-28T12:36:19.330Z,11392.00
2022-10-28T12:37:19.872Z,11292.00
2022-10-28T12:38:19.365Z,11768.00
2022-10-28T12:39:19.267Z,11816.00
2022-10-28T12:40:20.913Z,12760.00
2022-10-28T12:41:19.863Z,12472.00
2022-10-28T12:42:23.383Z,11896.00
2022-10-28T12:43:20.930Z,10484.00
2022-10-28T12:44:20.840Z,11072.00
2022-10-28T12:45:19.821Z,10500.00
2022-10-28T12:46:19.925Z,10084.00
2022-10-28T12:47:32.737Z,9196.00
2022-10-28T13:12:34.791Z,11828.00
2022-10-28T13:13:34.812Z,12832.00
2022-10-28T13:14:34.752Z,13152.00
2022-10-28T13:15:34.768Z,13480.00
2022-10-28T13:16:34.739Z,11768.00
2022-10-28T13:17:34.745Z,10524.00
2022-10-28T13:34:04.704Z,10112.00
2022-10-28T13:35:04.684Z,10208.00
2022-10-28T13:36:04.667Z,10308.00
2022-10-28T13:37:04.655Z,10384.00
2022-10-28T13:38:04.640Z,10296.00
2022-10-28T13:39:04.623Z,10020.00
2022-10-28T13:40:04.640Z,9760.00
2022-10-28T13:43:59.374Z,9496.00
2022-10-28T13:44:59.326Z,9560.00
2022-10-28T13:45:59.321Z,9748.00
2022-10-28T13:46:59.335Z,9852.00
2022-10-28T13:47:59.304Z,9904.00
2022-10-28T13:49:01.286Z,10324.00
2022-10-28T13:49:59.258Z,10372.00
2022-10-28T13:50:59.272Z,10216.00
2022-10-28T13:51:59.252Z,10248.00
2022-10-28T13:52:59.298Z,10588.00
